Arnolds Park, Iowa
Current Conditions -  °F | °C
As of 7:53 PM on Thursday 18 Dec 2014 (Local Time) from KSPW Reporting Station
Overcast Overcast  
Wind Chill: -6°   Ceiling: 2300
Heat Index: -3°   Visibility: 10mi
Dew Point: -6°   Wind: 5mph
Humidity: 78%   Direction: 130°SE
Pressure: 30.21"   Gusts: NA
Location:  43.37°N, 95.12°W
Report Text: KSPW 190153Z AUTO 13004KT 10SM OVC023 M03/M06 A3021 RMK AO2 SLP252 T10281061 TSNO
Loading
Personal Weather Stations






























Interactive Weather Map New forecast layout! Learn more

10-Day Weather Forecast

Advertisements
Track Severe Weather on mobile